createdAt,value
2022-09-28T00:01:43.703Z,1.23
2022-09-28T00:05:09.070Z,1.73
2022-09-28T00:08:31.969Z,1.50
2022-09-28T00:11:56.730Z,1.55
2022-09-28T00:15:20.507Z,2.42
2022-09-28T00:18:44.080Z,1.88
2022-09-28T00:22:07.863Z,1.50
2022-09-28T00:25:30.622Z,1.40
2022-09-28T00:28:54.193Z,4.60
2022-09-28T00:32:17.458Z,1.80
2022-09-28T00:35:40.623Z,1.70
2022-09-28T00:39:08.816Z,1.42
2022-09-28T00:42:31.767Z,3.50
2022-09-28T00:46:01.043Z,1.98
2022-09-28T00:49:32.744Z,1.90
2022-09-28T00:53:00.107Z,1.83
2022-09-28T00:56:27.896Z,1.95
2022-09-28T00:59:51.364Z,1.50
2022-09-28T01:03:15.127Z,1.65
2022-09-28T01:06:39.985Z,2.22
2022-09-28T01:10:03.723Z,2.35
2022-09-28T01:13:28.988Z,1.95
2022-09-28T01:16:59.459Z,1.67
2022-09-28T01:20:51.704Z,2.08
2022-09-28T01:24:30.858Z,1.55
2022-09-28T01:27:59.745Z,3.17
2022-09-28T01:31:29.053Z,1.65
2022-09-28T01:34:59.995Z,1.73
2022-09-28T01:38:27.360Z,1.45
2022-09-28T01:41:54.111Z,2.83
2022-09-28T01:45:23.996Z,2.63
2022-09-28T01:48:53.995Z,2.60
2022-09-28T01:52:20.911Z,1.73
2022-09-28T01:55:47.493Z,2.20
2022-09-28T01:59:15.604Z,2.92
2022-09-28T02:02:45.230Z,2.00
2022-09-28T02:06:13.642Z,2.08
2022-09-28T02:09:41.825Z,2.63
2022-09-28T02:13:08.878Z,2.03
2022-09-28T02:16:37.095Z,3.13
2022-09-28T02:20:01.806Z,2.07
2022-09-28T02:23:28.819Z,3.35
2022-09-28T02:26:53.825Z,3.67
2022-09-28T02:30:18.432Z,3.00
2022-09-28T02:33:45.686Z,3.67
2022-09-28T02:37:10.385Z,2.92
2022-09-28T02:40:35.754Z,2.55
2022-09-28T02:44:06.547Z,2.35
2022-09-28T02:47:41.591Z,2.75
2022-09-28T02:51:15.712Z,2.90
2022-09-28T02:54:58.128Z,2.28
2022-09-28T02:58:32.980Z,3.92
2022-09-28T03:02:06.537Z,3.50
2022-09-28T03:05:39.164Z,2.10
2022-09-28T03:09:07.018Z,5.57
2022-09-28T03:12:33.886Z,2.45
2022-09-28T03:16:11.938Z,3.55
2022-09-28T03:19:37.520Z,4.03
2022-09-28T03:23:23.304Z,4.00
2022-09-28T03:26:46.282Z,4.93
2022-09-28T03:30:13.644Z,3.67
2022-09-28T03:33:38.133Z,3.63
2022-09-28T03:37:02.026Z,3.72
2022-09-28T03:40:26.070Z,5.32
2022-09-28T03:43:49.579Z,3.95
2022-09-28T03:47:16.534Z,6.78
2022-09-28T03:50:40.209Z,5.30
2022-09-28T03:54:03.682Z,5.93
2022-09-28T03:57:26.645Z,9.48
2022-09-28T04:00:49.764Z,12.63
2022-09-28T04:04:15.034Z,22.58
2022-09-28T04:07:37.977Z,16.00
2022-09-28T04:11:01.034Z,23.10
2022-09-28T04:14:24.032Z,10.07
2022-09-28T04:17:46.968Z,7.28
2022-09-28T04:21:14.526Z,20.20
2022-09-28T04:24:37.381Z,34.08
2022-09-28T04:28:17.441Z,47.55
2022-09-28T04:31:41.808Z,49.85
2022-09-28T04:35:04.692Z,25.52
2022-09-28T04:38:51.334Z,51.42
2022-09-28T04:42:12.840Z,89.32
2022-09-28T04:45:35.828Z,58.97
2022-09-28T04:48:58.759Z,107.88
2022-09-28T04:52:21.513Z,66.70
2022-09-28T04:55:45.597Z,99.13
2022-09-28T04:59:08.452Z,46.28
2022-09-28T05:02:31.565Z,47.80
2022-09-28T05:05:54.887Z,82.05
2022-09-28T05:09:18.087Z,26.52
2022-09-28T05:12:43.163Z,64.45
2022-09-28T05:16:06.167Z,53.53
2022-09-28T05:19:30.513Z,23.75
2022-09-28T05:22:53.166Z,53.00
2022-09-28T05:26:15.817Z,57.22
2022-09-28T05:29:40.011Z,60.25
2022-09-28T05:33:02.458Z,48.33
2022-09-28T05:36:27.297Z,59.83
2022-09-28T05:39:50.219Z,17.73
2022-09-28T05:43:13.057Z,51.60
2022-09-28T05:46:37.368Z,130.50
2022-09-28T05:50:00.061Z,41.17
2022-09-28T05:53:23.495Z,63.03
2022-09-28T05:56:46.040Z,84.05
2022-09-28T06:00:09.927Z,51.30
2022-09-28T06:03:34.322Z,28.83
2022-09-28T06:06:56.977Z,20.63
2022-09-28T06:10:20.544Z,20.38
2022-09-28T06:13:43.403Z,15.85
2022-09-28T06:17:06.313Z,16.73
2022-09-28T06:20:33.521Z,14.50
2022-09-28T06:23:56.379Z,5.63
2022-09-28T06:27:19.237Z,8.43
2022-09-28T06:30:43.575Z,8.13
2022-09-28T06:34:06.182Z,7.18
2022-09-28T06:37:33.341Z,5.63
2022-09-28T06:40:56.024Z,4.75
2022-09-28T06:44:18.998Z,5.78
2022-09-28T06:47:42.421Z,9.52
2022-09-28T06:51:05.076Z,8.38
2022-09-28T06:54:29.261Z,6.10
2022-09-28T06:58:00.724Z,5.25
2022-09-28T07:01:23.609Z,8.45
2022-09-28T07:04:46.847Z,4.70
2022-09-28T07:08:10.217Z,4.53
2022-09-28T07:11:41.263Z,4.65
2022-09-28T07:15:05.264Z,6.20
2022-09-28T07:18:30.298Z,9.77
2022-09-28T07:22:04.107Z,7.15
2022-09-28T07:25:32.052Z,5.07
2022-09-28T07:28:56.962Z,9.75
2022-09-28T07:32:19.727Z,6.55
2022-09-28T07:35:43.490Z,7.85
2022-09-28T07:39:06.865Z,6.10
2022-09-28T07:42:30.760Z,6.43
2022-09-28T07:45:56.341Z,8.65
2022-09-28T07:49:19.723Z,6.95
2022-09-28T07:52:43.512Z,3.90
2022-09-28T07:56:09.233Z,5.05
2022-09-28T07:59:33.013Z,5.47
2022-09-28T08:02:57.207Z,4.60
2022-09-28T08:06:20.264Z,4.38
2022-09-28T08:09:42.820Z,4.47
2022-09-28T08:13:08.685Z,4.03
2022-09-28T08:16:32.928Z,6.18
2022-09-28T08:20:14.634Z,4.65
2022-09-28T08:23:37.593Z,3.88
2022-09-28T08:27:01.100Z,4.00
2022-09-28T08:30:23.838Z,5.07
2022-09-28T08:33:46.986Z,4.10
2022-09-28T08:37:12.929Z,3.25
2022-09-28T08:40:45.343Z,4.13
2022-09-28T08:44:17.036Z,3.83
2022-09-28T08:48:07.466Z,3.25
2022-09-28T08:51:35.855Z,3.25
2022-09-28T08:55:06.593Z,2.88
2022-09-28T08:58:33.550Z,4.10
2022-09-28T09:02:00.969Z,6.22
2022-09-28T09:05:37.495Z,4.10
2022-09-28T09:09:10.133Z,3.88
2022-09-28T09:12:43.328Z,2.85
2022-09-28T09:16:14.682Z,2.42
2022-09-28T09:19:48.552Z,2.97
2022-09-28T09:23:21.347Z,12.85
2022-09-28T09:26:45.326Z,3.80
2022-09-28T09:30:13.959Z,4.90
2022-09-28T09:33:58.117Z,2.40
2022-09-28T09:37:36.120Z,3.38
2022-09-28T09:45:20.885Z,2.08
2022-09-28T09:48:53.121Z,3.80
2022-09-28T09:52:24.068Z,2.58
2022-09-28T09:55:50.884Z,2.45
2022-09-28T09:59:18.867Z,2.35
2022-09-28T10:02:45.944Z,4.15
2022-09-28T10:06:15.124Z,3.72
2022-09-28T10:09:41.542Z,2.75
2022-09-28T10:13:05.537Z,2.40
2022-09-28T10:16:28.778Z,3.33
2022-09-28T10:19:52.988Z,3.75
2022-09-28T10:23:23.723Z,3.30
2022-09-28T10:26:52.315Z,2.97
2022-09-28T10:30:20.094Z,2.55
2022-09-28T10:33:42.950Z,2.72
2022-09-28T10:37:11.546Z,3.88
2022-09-28T10:40:42.145Z,2.72
2022-09-28T10:44:10.967Z,2.42
2022-09-28T10:47:35.987Z,3.53
2022-09-28T10:51:04.681Z,3.47
2022-09-28T10:54:30.915Z,3.13
2022-09-28T10:57:54.491Z,2.42
2022-09-28T11:01:20.875Z,3.13
2022-09-28T11:04:45.839Z,3.05
2022-09-28T11:08:09.617Z,6.80
2022-09-28T11:11:42.719Z,2.63
2022-09-28T11:15:08.339Z,2.33
2022-09-28T11:18:34.273Z,2.28
2022-09-28T11:21:57.439Z,3.33
2022-09-28T11:25:25.916Z,3.83
2022-09-28T11:28:53.491Z,3.10
2022-09-28T11:32:16.758Z,3.08
2022-09-28T11:35:50.570Z,2.85
2022-09-28T11:39:18.315Z,3.28
2022-09-28T11:42:51.957Z,2.50
2022-09-28T11:46:25.974Z,3.50
2022-09-28T11:49:52.823Z,4.45
2022-09-28T11:53:22.334Z,2.85
2022-09-28T11:56:47.964Z,3.92
2022-09-28T12:00:17.269Z,2.13
2022-09-28T12:03:48.427Z,3.45
2022-09-28T12:07:18.340Z,2.42
2022-09-28T12:10:48.884Z,2.55
2022-09-28T12:14:20.655Z,2.38
2022-09-28T12:17:48.077Z,2.13
2022-09-28T12:21:35.342Z,1.60
2022-09-28T12:25:00.144Z,2.58
2022-09-28T12:28:35.186Z,3.40
2022-09-28T12:32:09.922Z,2.33
2022-09-28T12:35:44.766Z,2.20
2022-09-28T12:39:35.544Z,3.38
2022-09-28T12:43:19.733Z,2.38
2022-09-28T12:47:06.103Z,2.22
2022-09-28T12:50:39.876Z,2.85
2022-09-28T12:54:20.322Z,2.20
2022-09-28T12:57:57.106Z,1.80
2022-09-28T13:01:41.821Z,1.70
2022-09-28T13:05:21.175Z,3.65
2022-09-28T13:08:53.910Z,3.95
2022-09-28T13:12:27.173Z,2.40
2022-09-28T13:15:58.957Z,2.63
2022-09-28T13:19:33.175Z,4.22
2022-09-28T13:23:05.686Z,3.60
2022-09-28T13:26:30.390Z,3.13
2022-09-28T13:29:57.648Z,2.35
2022-09-28T13:33:34.127Z,2.58
2022-09-28T13:37:24.685Z,2.33
2022-09-28T13:41:20.182Z,3.78
2022-09-28T13:45:11.182Z,4.45
2022-09-28T13:48:48.983Z,12.77
2022-09-28T13:52:15.672Z,4.72
2022-09-28T13:55:54.359Z,7.00
2022-09-28T13:59:25.308Z,10.50
2022-09-28T14:02:55.055Z,12.18
2022-09-28T14:06:29.153Z,9.05
2022-09-28T14:10:18.224Z,11.10
2022-09-28T14:14:01.041Z,14.10
2022-09-28T14:17:54.824Z,8.75
2022-09-28T14:21:52.500Z,11.80
2022-09-28T14:25:18.841Z,9.68
2022-09-28T14:28:55.012Z,8.32
2022-09-28T14:32:35.092Z,10.52
2022-09-28T14:36:02.841Z,9.65
2022-09-28T14:39:48.136Z,11.27
2022-09-28T14:43:37.403Z,10.30
2022-09-28T14:47:27.808Z,16.73
2022-09-28T14:50:51.993Z,12.05
2022-09-28T14:54:22.945Z,13.35
2022-09-28T14:57:53.380Z,8.38
2022-09-28T15:01:23.922Z,10.65
2022-09-28T15:04:51.362Z,4.45
2022-09-28T15:08:14.341Z,10.50
2022-09-28T15:11:42.111Z,6.38
2022-09-28T15:15:08.967Z,12.05
2022-09-28T15:18:54.041Z,11.95
2022-09-28T15:22:18.128Z,9.18
2022-09-28T15:25:41.393Z,7.90
2022-09-28T15:29:19.208Z,13.30
2022-09-28T15:32:42.062Z,6.88
2022-09-28T15:36:07.565Z,9.52
2022-09-28T15:39:34.579Z,5.70
2022-09-28T15:42:59.401Z,6.75
2022-09-28T15:46:25.413Z,6.85
2022-09-28T15:49:57.551Z,5.78
2022-09-28T15:53:21.017Z,8.77
2022-09-28T15:56:54.119Z,9.48
2022-09-28T16:00:30.186Z,8.50
2022-09-28T16:03:55.397Z,9.25
2022-09-28T16:07:25.421Z,9.60
2022-09-28T16:11:08.347Z,8.52
2022-09-28T16:14:31.415Z,7.85
2022-09-28T16:17:56.524Z,6.75
2022-09-28T16:21:45.698Z,8.60
2022-09-28T16:25:20.025Z,10.82
2022-09-28T16:28:52.409Z,9.73
2022-09-28T16:32:38.924Z,8.65
2022-09-28T16:36:04.845Z,10.95
2022-09-28T16:39:30.368Z,13.75
2022-09-28T16:42:55.173Z,9.98
2022-09-28T16:46:20.427Z,10.52
2022-09-28T16:49:43.651Z,12.55
2022-09-28T16:53:32.415Z,10.75
2022-09-28T16:56:57.216Z,11.35
2022-09-28T17:00:23.353Z,11.45
2022-09-28T17:03:48.058Z,11.93
2022-09-28T17:07:12.448Z,14.13
2022-09-28T17:11:02.152Z,8.75
2022-09-28T17:14:23.665Z,10.38
2022-09-28T17:22:34.062Z,8.82
2022-09-28T17:25:59.580Z,6.65
2022-09-28T17:29:24.177Z,9.18
2022-09-28T17:32:47.678Z,15.95
2022-09-28T17:36:16.758Z,11.77
2022-09-28T17:39:39.405Z,9.70
2022-09-28T17:43:04.213Z,7.68
2022-09-28T17:46:32.435Z,6.82
2022-09-28T17:49:55.764Z,8.23
2022-09-28T17:53:18.927Z,8.43
2022-09-28T17:56:42.709Z,11.05
2022-09-28T18:00:06.387Z,6.47
2022-09-28T18:03:30.879Z,7.30
2022-09-28T18:06:53.431Z,5.20
2022-09-28T18:10:20.217Z,8.20
2022-09-28T18:13:44.064Z,9.40
2022-09-28T18:17:06.713Z,5.47
2022-09-28T18:20:31.620Z,7.20
2022-09-28T18:23:54.375Z,5.85
2022-09-28T18:27:17.850Z,10.13
2022-09-28T18:30:42.923Z,9.15
2022-09-28T18:34:06.428Z,5.43
2022-09-28T18:37:30.617Z,7.65
2022-09-28T18:40:55.059Z,6.03
2022-09-28T18:44:17.663Z,5.57
2022-09-28T18:47:40.823Z,6.25
2022-09-28T18:51:03.650Z,3.95
2022-09-28T18:54:28.381Z,6.00
2022-09-28T18:57:51.755Z,6.57
2022-09-28T19:01:32.095Z,5.25
2022-09-28T19:04:55.183Z,5.15
2022-09-28T19:08:18.282Z,5.30
2022-09-28T19:11:42.848Z,5.25
2022-09-28T19:15:06.270Z,4.90
2022-09-28T19:18:33.068Z,3.10
2022-09-28T19:21:55.746Z,4.78
2022-09-28T19:25:18.577Z,5.05
2022-09-28T19:28:45.120Z,3.65
2022-09-28T19:32:07.772Z,3.28
2022-09-28T19:35:30.735Z,3.65
2022-09-28T19:38:55.281Z,4.75
2022-09-28T19:42:18.397Z,3.15
2022-09-28T19:45:43.277Z,4.60
2022-09-28T19:49:07.398Z,4.72
2022-09-28T19:52:30.448Z,7.57
2022-09-28T19:55:54.838Z,4.63
2022-09-28T19:59:18.217Z,4.13
2022-09-28T20:02:42.776Z,4.00
2022-09-28T20:06:05.877Z,4.55
2022-09-28T20:09:29.138Z,2.38
2022-09-28T20:12:53.742Z,6.63
2022-09-28T20:16:21.113Z,3.75
2022-09-28T20:19:45.492Z,7.03
2022-09-28T20:23:08.452Z,4.00
2022-09-28T20:26:36.429Z,4.97
2022-09-28T20:30:00.207Z,4.43
2022-09-28T20:33:28.896Z,4.05
2022-09-28T20:36:54.423Z,4.97
2022-09-28T20:40:18.640Z,4.47
2022-09-28T20:43:43.007Z,4.20
2022-09-28T20:47:06.066Z,3.97
2022-09-28T20:50:29.236Z,3.75
2022-09-28T20:53:55.163Z,4.63
2022-09-28T20:57:21.669Z,3.88
2022-09-28T21:00:44.362Z,5.00
2022-09-28T21:04:08.446Z,3.50
2022-09-28T21:07:31.609Z,5.93
2022-09-28T21:10:55.801Z,4.10
2022-09-28T21:14:19.236Z,4.18
2022-09-28T21:17:41.923Z,4.97
2022-09-28T21:21:08.068Z,4.15
2022-09-28T21:24:31.734Z,4.25
2022-09-28T21:27:56.847Z,5.50
2022-09-28T21:31:22.628Z,4.70
2022-09-28T21:34:47.303Z,7.28
2022-09-28T21:38:10.237Z,7.25
2022-09-28T21:41:33.194Z,4.53
2022-09-28T21:44:59.470Z,5.97
2022-09-28T21:48:22.496Z,6.40
2022-09-28T21:51:47.500Z,7.13
2022-09-28T21:55:11.482Z,6.82
2022-09-28T21:58:36.321Z,5.35
2022-09-28T22:02:00.744Z,3.78
2022-09-28T22:05:23.949Z,5.50
2022-09-28T22:08:47.012Z,5.03
2022-09-28T22:12:10.068Z,4.53
2022-09-28T22:15:32.869Z,6.55
2022-09-28T22:18:57.706Z,5.43
2022-09-28T22:22:20.348Z,5.47
2022-09-28T22:25:43.247Z,4.95
2022-09-28T22:29:08.456Z,5.13
2022-09-28T22:32:32.537Z,7.32
2022-09-28T22:35:57.445Z,4.75
2022-09-28T22:39:20.099Z,4.28
2022-09-28T22:42:43.341Z,6.18
2022-09-28T22:46:08.071Z,4.40
2022-09-28T22:49:30.512Z,4.35
2022-09-28T22:52:56.751Z,6.72
2022-09-28T22:56:19.715Z,7.80
2022-09-28T22:59:42.464Z,5.30
2022-09-28T23:03:05.386Z,6.13
2022-09-28T23:06:31.255Z,4.75
2022-09-28T23:09:58.514Z,5.45
2022-09-28T23:13:21.577Z,5.65
2022-09-28T23:16:44.129Z,6.32
2022-09-28T23:20:08.529Z,5.47
2022-09-28T23:23:32.502Z,3.50
2022-09-28T23:26:57.510Z,8.43
2022-09-28T23:30:21.727Z,3.75
2022-09-28T23:33:45.743Z,6.68
2022-09-28T23:37:09.060Z,6.53
2022-09-28T23:40:32.887Z,6.90
2022-09-28T23:43:57.729Z,4.40
2022-09-28T23:47:20.900Z,6.93
2022-09-28T23:50:44.883Z,4.95
2022-09-28T23:54:08.339Z,4.88
2022-09-28T23:57:31.836Z,4.82
